createdAt,value
2017-12-20T00:01:11.054Z,1.20
2017-12-20T00:03:44.567Z,1.20
2017-12-20T00:06:18.326Z,1.30
2017-12-20T00:08:52.048Z,1.40
2017-12-20T00:11:25.562Z,1.40
2017-12-20T00:13:59.927Z,1.10
2017-12-20T00:16:33.603Z,1.10
2017-12-20T00:19:07.142Z,1.30
2017-12-20T00:21:40.687Z,1.20
2017-12-20T00:24:14.843Z,1.30
2017-12-20T00:26:48.465Z,1.40
2017-12-20T00:29:22.052Z,1.40
2017-12-20T00:31:55.620Z,1.50
2017-12-20T00:34:29.415Z,1.50
2017-12-20T00:37:03.309Z,1.20
2017-12-20T00:39:36.912Z,1.30
2017-12-20T00:42:10.580Z,1.10
2017-12-20T00:44:44.141Z,0.70
2017-12-20T00:47:17.695Z,0.90
2017-12-20T00:49:51.566Z,0.90
2017-12-20T00:52:25.957Z,0.80
2017-12-20T00:54:59.651Z,0.90
2017-12-20T00:57:33.254Z,0.90
2017-12-20T01:00:06.907Z,0.90
2017-12-20T01:02:40.636Z,0.90
2017-12-20T01:05:14.185Z,0.80
2017-12-20T01:07:47.817Z,0.80
2017-12-20T01:10:21.307Z,0.80
2017-12-20T01:12:54.877Z,0.70
2017-12-20T01:15:28.506Z,0.60
2017-12-20T01:18:02.134Z,0.50
2017-12-20T01:20:35.701Z,0.60
2017-12-20T01:23:09.262Z,0.60
2017-12-20T01:25:42.824Z,0.50
2017-12-20T01:28:16.450Z,0.70
2017-12-20T01:30:49.950Z,0.70
2017-12-20T01:33:23.552Z,0.60
2017-12-20T01:35:57.343Z,0.70
2017-12-20T01:38:30.939Z,0.50
2017-12-20T01:41:04.693Z,0.40
2017-12-20T01:43:38.340Z,0.40
2017-12-20T01:46:11.908Z,0.60
2017-12-20T01:48:45.569Z,0.50
2017-12-20T01:51:19.368Z,0.50
2017-12-20T01:53:52.920Z,0.80
2017-12-20T01:56:27.248Z,0.80
2017-12-20T01:59:00.865Z,0.90
2017-12-20T02:01:34.473Z,0.80
2017-12-20T02:04:08.070Z,0.90
2017-12-20T02:06:41.638Z,0.70
2017-12-20T02:09:15.200Z,0.70
2017-12-20T02:11:49.660Z,0.50
2017-12-20T02:14:23.292Z,0.40
2017-12-20T02:16:56.854Z,0.50
2017-12-20T02:19:31.392Z,0.60
2017-12-20T02:22:04.990Z,0.60
2017-12-20T02:24:38.665Z,0.40
2017-12-20T02:27:12.390Z,0.40
2017-12-20T02:29:45.993Z,0.60
2017-12-20T02:32:19.527Z,0.70
2017-12-20T02:34:53.107Z,0.90
2017-12-20T02:37:26.882Z,1.00
2017-12-20T02:40:01.239Z,1.10
2017-12-20T02:42:34.809Z,1.10
2017-12-20T02:45:08.442Z,1.20
2017-12-20T02:47:41.995Z,1.30
2017-12-20T02:50:15.775Z,1.30
2017-12-20T02:52:49.528Z,1.00
2017-12-20T02:55:23.153Z,1.10
2017-12-20T02:57:56.896Z,1.00
2017-12-20T03:00:30.585Z,1.10
2017-12-20T03:03:04.144Z,0.90
2017-12-20T03:05:37.755Z,1.00
2017-12-20T03:08:12.349Z,1.20
2017-12-20T03:10:45.974Z,1.20
2017-12-20T03:13:19.556Z,1.30
2017-12-20T03:15:53.195Z,1.30
2017-12-20T03:18:27.002Z,1.40
2017-12-20T03:21:00.549Z,1.40
2017-12-20T03:23:34.261Z,1.50
2017-12-20T03:26:07.850Z,1.40
2017-12-20T03:28:41.358Z,1.30
2017-12-20T03:31:15.690Z,1.50
2017-12-20T03:33:49.438Z,1.50
2017-12-20T03:36:23.039Z,1.50
2017-12-20T03:38:56.726Z,1.50
2017-12-20T03:41:30.329Z,1.20
2017-12-20T03:44:04.126Z,1.20
2017-12-20T03:46:37.716Z,1.20
2017-12-20T03:49:11.297Z,1.30
2017-12-20T03:51:44.911Z,1.30
2017-12-20T03:54:18.477Z,1.20
2017-12-20T03:56:52.878Z,1.30
2017-12-20T03:59:26.413Z,1.30
2017-12-20T04:02:00.052Z,1.40
2017-12-20T04:04:33.596Z,1.50
2017-12-20T04:07:07.221Z,1.50
2017-12-20T04:09:40.710Z,1.50
2017-12-20T04:12:14.501Z,1.50
2017-12-20T04:14:48.256Z,1.50
2017-12-20T04:17:21.834Z,1.60
2017-12-20T04:19:55.509Z,1.60
2017-12-20T04:22:29.844Z,1.60
2017-12-20T04:25:03.687Z,1.60
2017-12-20T04:27:37.236Z,1.60
2017-12-20T04:30:10.850Z,1.70
2017-12-20T04:32:44.389Z,1.70
2017-12-20T04:35:17.933Z,1.70
2017-12-20T04:37:52.360Z,1.80
2017-12-20T04:40:26.132Z,1.80
2017-12-20T04:42:59.879Z,1.70
2017-12-20T04:45:33.554Z,1.80
2017-12-20T04:48:07.130Z,1.80
2017-12-20T04:50:40.786Z,1.70
2017-12-20T04:53:14.402Z,1.70
2017-12-20T04:55:49.017Z,1.60
2017-12-20T04:58:22.781Z,1.60
2017-12-20T05:00:56.546Z,1.60
2017-12-20T05:03:30.264Z,1.60
2017-12-20T05:06:03.820Z,1.50
2017-12-20T05:08:37.470Z,1.60
2017-12-20T05:11:11.050Z,1.40
2017-12-20T05:13:44.726Z,1.30
2017-12-20T05:16:18.256Z,1.10
2017-12-20T05:18:51.830Z,1.00
2017-12-20T05:21:25.418Z,1.00
2017-12-20T05:23:59.764Z,1.30
2017-12-20T05:26:33.377Z,1.30
2017-12-20T05:29:07.688Z,1.40
2017-12-20T05:31:41.328Z,1.40
2017-12-20T05:34:14.863Z,1.30
2017-12-20T05:36:48.458Z,1.40
2017-12-20T05:39:21.984Z,1.50
2017-12-20T05:41:55.546Z,1.60
2017-12-20T05:44:29.166Z,1.60
2017-12-20T05:47:02.838Z,1.50
2017-12-20T05:49:36.571Z,1.50
2017-12-20T05:52:10.103Z,1.50
2017-12-20T05:54:43.629Z,1.60
2017-12-20T05:57:17.309Z,1.60
2017-12-20T05:59:50.990Z,1.70
2017-12-20T06:02:25.503Z,1.40
2017-12-20T06:04:59.137Z,1.40
2017-12-20T06:07:32.795Z,1.50
2017-12-20T06:10:06.399Z,1.50
2017-12-20T06:12:39.997Z,1.10
2017-12-20T06:15:13.610Z,1.10
2017-12-20T06:17:48.036Z,1.30
2017-12-20T06:20:21.650Z,1.30
2017-12-20T06:22:55.242Z,1.40
2017-12-20T06:25:29.554Z,1.00
2017-12-20T06:28:03.250Z,0.90
2017-12-20T06:30:36.851Z,1.10
2017-12-20T06:33:10.437Z,1.10
2017-12-20T06:35:44.238Z,1.10
2017-12-20T06:38:17.740Z,0.90
2017-12-20T06:40:51.347Z,0.90
2017-12-20T06:43:25.063Z,0.70
2017-12-20T06:45:58.682Z,0.80
2017-12-20T06:48:32.262Z,1.10
2017-12-20T06:51:06.024Z,1.20
2017-12-20T06:53:39.646Z,1.30
2017-12-20T06:56:14.015Z,1.30
2017-12-20T06:58:47.678Z,1.30
2017-12-20T07:01:21.326Z,1.40
2017-12-20T07:03:54.865Z,1.40
2017-12-20T07:06:29.207Z,1.30
2017-12-20T07:09:02.809Z,1.30
2017-12-20T07:11:36.474Z,1.40
2017-12-20T07:14:10.193Z,1.50
2017-12-20T07:16:43.814Z,1.50
2017-12-20T07:19:17.404Z,1.50
2017-12-20T07:21:51.013Z,1.50
2017-12-20T07:24:24.607Z,1.20
2017-12-20T07:26:58.268Z,1.10
2017-12-20T07:29:32.037Z,1.20
2017-12-20T07:32:05.705Z,1.00
2017-12-20T07:34:39.304Z,0.70
2017-12-20T07:37:12.946Z,0.60
2017-12-20T07:39:47.243Z,1.10
2017-12-20T07:42:20.924Z,1.10
2017-12-20T07:44:55.425Z,1.30
2017-12-20T07:47:29.059Z,1.30
2017-12-20T07:50:02.587Z,1.50
2017-12-20T07:52:37.135Z,1.60
2017-12-20T07:55:10.923Z,1.70
2017-12-20T07:57:44.523Z,1.80
2017-12-20T08:00:18.177Z,1.80
2017-12-20T08:02:51.858Z,1.80
2017-12-20T08:05:25.466Z,1.80
2017-12-20T08:07:59.046Z,1.90
2017-12-20T08:10:32.572Z,1.90
2017-12-20T08:13:07.055Z,2.10
2017-12-20T08:15:40.845Z,2.10
2017-12-20T08:18:14.381Z,2.20
2017-12-20T08:20:48.733Z,2.20
2017-12-20T08:23:22.354Z,2.10
2017-12-20T08:25:55.903Z,2.00
2017-12-20T08:28:30.376Z,2.10
2017-12-20T08:31:03.899Z,2.10
2017-12-20T08:33:38.282Z,2.00
2017-12-20T08:36:11.845Z,2.00
2017-12-20T08:38:45.506Z,2.10
2017-12-20T08:41:19.084Z,2.10
2017-12-20T08:43:52.654Z,2.20
2017-12-20T08:46:26.261Z,2.30
2017-12-20T08:48:59.853Z,2.30
2017-12-20T08:51:33.539Z,2.30
2017-12-20T08:54:07.065Z,2.30
2017-12-20T08:56:41.653Z,2.40
2017-12-20T08:59:15.338Z,2.40
2017-12-20T09:01:49.738Z,2.30
2017-12-20T09:04:23.378Z,2.30
2017-12-20T09:06:57.163Z,2.10
2017-12-20T09:09:30.670Z,1.70
2017-12-20T09:12:05.043Z,1.60
2017-12-20T09:14:38.667Z,1.50
2017-12-20T09:17:12.379Z,1.70
2017-12-20T09:19:46.034Z,1.90
2017-12-20T09:22:19.622Z,2.10
2017-12-20T09:24:53.298Z,2.20
2017-12-20T09:27:26.848Z,2.40
2017-12-20T09:30:00.440Z,2.50
2017-12-20T09:32:33.972Z,2.60
2017-12-20T09:35:07.546Z,2.70
2017-12-20T09:37:41.147Z,2.50
2017-12-20T09:40:14.688Z,2.60
2017-12-20T09:42:48.254Z,2.70
2017-12-20T09:45:22.637Z,2.80
2017-12-20T09:47:56.432Z,2.90
2017-12-20T09:50:30.115Z,2.60
2017-12-20T09:53:03.679Z,2.60
2017-12-20T09:55:37.338Z,2.80
2017-12-20T09:58:11.099Z,3.00
2017-12-20T10:00:44.700Z,3.00
2017-12-20T10:03:18.516Z,3.00
2017-12-20T10:05:52.089Z,3.20
2017-12-20T10:08:25.629Z,3.00
2017-12-20T10:10:59.223Z,3.20
2017-12-20T10:13:32.787Z,3.20
2017-12-20T10:16:06.338Z,3.40
2017-12-20T10:18:39.990Z,3.40
2017-12-20T10:21:13.648Z,3.50
2017-12-20T10:23:47.290Z,3.60
2017-12-20T10:26:20.896Z,3.70
2017-12-20T10:28:54.475Z,3.80
2017-12-20T10:31:28.822Z,3.90
2017-12-20T10:34:02.407Z,3.90
2017-12-20T10:36:36.723Z,4.00
2017-12-20T10:39:10.326Z,4.00
2017-12-20T10:41:44.666Z,4.10
2017-12-20T10:44:18.359Z,4.10
2017-12-20T10:46:51.951Z,4.10
2017-12-20T10:49:25.557Z,4.10
2017-12-20T10:51:59.162Z,4.20
2017-12-20T10:54:32.716Z,4.20
2017-12-20T10:57:06.450Z,4.30
2017-12-20T10:59:40.958Z,4.30
2017-12-20T11:02:14.609Z,4.30
2017-12-20T11:04:48.267Z,4.20
2017-12-20T11:07:21.873Z,3.50
2017-12-20T11:09:55.420Z,3.40
2017-12-20T11:12:28.971Z,3.70
2017-12-20T11:15:02.558Z,3.30
2017-12-20T11:17:36.112Z,3.20
2017-12-20T11:20:09.910Z,3.30
2017-12-20T11:22:43.562Z,3.40
2017-12-20T11:25:17.166Z,3.70
2017-12-20T11:27:50.703Z,3.80
2017-12-20T11:30:24.290Z,3.80
2017-12-20T11:32:57.873Z,3.10
2017-12-20T11:35:31.586Z,3.20
2017-12-20T11:38:05.177Z,3.50
2017-12-20T11:40:38.705Z,3.50
2017-12-20T11:43:12.384Z,3.80
2017-12-20T11:45:46.057Z,4.10
2017-12-20T11:48:19.579Z,4.20
2017-12-20T11:50:53.183Z,4.30
2017-12-20T11:53:26.788Z,4.00
2017-12-20T11:56:00.281Z,4.20
2017-12-20T11:58:33.837Z,4.40
2017-12-20T12:01:07.408Z,4.50
2017-12-20T12:03:41.490Z,4.60
2017-12-20T12:06:15.082Z,4.70
2017-12-20T12:08:48.854Z,4.70
2017-12-20T12:11:22.432Z,4.90
2017-12-20T12:13:56.004Z,4.90
2017-12-20T12:16:29.530Z,5.00
2017-12-20T12:19:03.162Z,5.10
2017-12-20T12:21:37.664Z,5.10
2017-12-20T12:24:11.316Z,5.10
2017-12-20T12:26:44.931Z,5.10
2017-12-20T12:29:18.711Z,5.20
2017-12-20T12:31:52.260Z,5.20
2017-12-20T12:34:25.825Z,5.30
2017-12-20T12:36:59.604Z,5.30
2017-12-20T12:39:33.235Z,5.30
2017-12-20T12:42:06.795Z,5.20
2017-12-20T12:44:40.331Z,5.30
2017-12-20T12:47:13.946Z,5.30
2017-12-20T12:49:47.502Z,5.30
2017-12-20T12:52:22.070Z,5.30
2017-12-20T12:54:55.662Z,5.30
2017-12-20T12:57:29.238Z,5.20
2017-12-20T13:00:02.816Z,5.20
2017-12-20T13:02:36.457Z,5.20
2017-12-20T13:05:10.051Z,5.10
2017-12-20T13:07:44.390Z,5.20
2017-12-20T13:10:17.889Z,5.20
2017-12-20T13:12:51.480Z,5.20
2017-12-20T13:15:25.071Z,5.10
2017-12-20T13:17:58.612Z,5.10
2017-12-20T13:20:32.250Z,5.20
2017-12-20T13:23:05.974Z,5.20
2017-12-20T13:25:39.626Z,5.10
2017-12-20T13:28:13.198Z,5.00
2017-12-20T13:30:46.779Z,5.00
2017-12-20T13:33:20.314Z,4.90
2017-12-20T13:35:53.893Z,4.90
2017-12-20T13:38:27.453Z,4.80
2017-12-20T13:41:01.938Z,5.00
2017-12-20T13:43:36.222Z,5.00
2017-12-20T13:46:09.758Z,5.00
2017-12-20T13:48:43.345Z,5.10
2017-12-20T13:51:16.917Z,5.10
2017-12-20T13:53:50.534Z,5.20
2017-12-20T13:56:24.047Z,5.30
2017-12-20T13:58:57.607Z,5.40
2017-12-20T14:01:31.278Z,5.50
2017-12-20T14:04:05.015Z,5.50
2017-12-20T14:06:38.545Z,5.50
2017-12-20T14:09:12.221Z,5.60
2017-12-20T14:11:45.915Z,5.60
2017-12-20T14:14:19.650Z,5.50
2017-12-20T14:16:53.398Z,5.50
2017-12-20T14:19:26.954Z,5.50
2017-12-20T14:22:00.565Z,5.60
2017-12-20T14:24:34.216Z,5.60
2017-12-20T14:27:07.762Z,5.60
2017-12-20T14:29:41.337Z,5.60
2017-12-20T14:32:15.110Z,5.60
2017-12-20T14:34:49.658Z,5.50
2017-12-20T14:37:23.370Z,5.50
2017-12-20T14:39:56.889Z,5.40
2017-12-20T14:42:30.449Z,5.30
2017-12-20T14:45:04.086Z,5.20
2017-12-20T14:47:37.557Z,5.10
2017-12-20T14:50:11.089Z,5.00
2017-12-20T14:52:44.704Z,4.80
2017-12-20T14:55:18.262Z,4.60
2017-12-20T14:57:51.870Z,4.60
2017-12-20T15:00:25.479Z,4.40
2017-12-20T15:02:59.058Z,4.30
2017-12-20T15:05:32.794Z,4.20
2017-12-20T15:08:06.408Z,4.10
2017-12-20T15:10:39.979Z,4.00
2017-12-20T15:13:14.305Z,3.80
2017-12-20T15:15:48.703Z,3.70
2017-12-20T15:18:22.455Z,3.60
2017-12-20T15:20:55.997Z,3.50
2017-12-20T15:23:29.527Z,3.30
2017-12-20T15:26:03.823Z,3.10
2017-12-20T15:28:37.514Z,3.10
2017-12-20T15:31:11.163Z,3.00
2017-12-20T15:33:44.770Z,3.00
2017-12-20T15:36:18.329Z,3.00
2017-12-20T15:38:51.983Z,2.90
2017-12-20T15:41:25.531Z,2.90
2017-12-20T15:43:59.118Z,2.80
2017-12-20T15:46:32.634Z,2.70
2017-12-20T15:49:06.339Z,2.70
2017-12-20T15:51:39.919Z,2.60
2017-12-20T15:54:13.475Z,2.60
2017-12-20T15:56:47.127Z,2.60
2017-12-20T15:59:20.734Z,2.50
2017-12-20T16:01:55.159Z,2.10
2017-12-20T16:04:29.684Z,1.70
2017-12-20T16:07:03.446Z,1.70
2017-12-20T16:09:37.104Z,1.70
2017-12-20T16:12:10.678Z,1.80
2017-12-20T16:14:44.220Z,1.90
2017-12-20T16:17:17.767Z,1.90
2017-12-20T16:19:51.319Z,1.90
2017-12-20T16:22:24.928Z,1.90
2017-12-20T16:24:58.487Z,1.70
2017-12-20T16:27:32.075Z,1.60
2017-12-20T16:30:05.690Z,1.60
2017-12-20T16:32:39.271Z,1.60
2017-12-20T16:35:13.288Z,1.50
2017-12-20T16:37:47.002Z,1.50
2017-12-20T16:40:20.619Z,1.50
2017-12-20T16:42:54.338Z,1.60
2017-12-20T16:45:28.059Z,1.50
2017-12-20T16:48:01.824Z,1.50
2017-12-20T16:50:35.443Z,1.50
2017-12-20T16:53:09.080Z,1.50
2017-12-20T16:55:42.630Z,1.60
2017-12-20T16:58:16.317Z,1.50
2017-12-20T17:00:49.954Z,1.50
2017-12-20T17:03:23.454Z,1.60
2017-12-20T17:05:57.036Z,1.40
2017-12-20T17:08:30.860Z,1.20
2017-12-20T17:11:04.512Z,1.00
2017-12-20T17:13:38.124Z,1.10
2017-12-20T17:16:11.718Z,1.10
2017-12-20T17:18:46.060Z,1.20
2017-12-20T17:21:19.706Z,1.20
2017-12-20T17:23:53.332Z,1.20
2017-12-20T17:26:27.120Z,1.20
2017-12-20T17:29:00.862Z,1.30
2017-12-20T17:31:34.382Z,1.30
2017-12-20T17:34:08.220Z,1.20
2017-12-20T17:36:41.843Z,1.10
2017-12-20T17:39:15.583Z,1.10
2017-12-20T17:41:49.337Z,1.00
2017-12-20T17:44:22.967Z,0.90
2017-12-20T17:46:56.624Z,1.00
2017-12-20T17:49:31.237Z,0.00
2017-12-20T17:52:05.760Z,0.30
2017-12-20T17:54:40.247Z,0.30
2017-12-20T17:57:14.676Z,0.30
2017-12-20T17:59:49.083Z,0.40
2017-12-20T18:02:23.435Z,0.40
2017-12-20T18:04:57.906Z,0.40
2017-12-20T18:07:31.527Z,0.30
2017-12-20T18:10:05.109Z,0.40
2017-12-20T18:12:38.644Z,0.40
2017-12-20T18:15:12.404Z,0.40
2017-12-20T18:17:46.993Z,0.40
2017-12-20T18:20:20.621Z,0.40
2017-12-20T18:22:54.317Z,0.30
2017-12-20T18:25:28.027Z,0.30
2017-12-20T18:28:02.610Z,0.20
2017-12-20T18:30:36.162Z,0.20
2017-12-20T18:33:09.757Z,0.20
2017-12-20T18:35:43.425Z,0.20
2017-12-20T18:38:16.976Z,0.20
2017-12-20T18:40:50.707Z,0.20
2017-12-20T18:43:24.406Z,0.30
2017-12-20T18:45:58.118Z,0.20
2017-12-20T18:48:32.033Z,0.20
2017-12-20T18:51:05.810Z,0.30
2017-12-20T18:53:39.412Z,0.30
2017-12-20T18:56:13.037Z,0.30
2017-12-20T18:58:46.746Z,0.40
2017-12-20T19:01:20.413Z,0.20
2017-12-20T19:03:54.019Z,0.30
2017-12-20T19:06:27.607Z,0.20
2017-12-20T19:09:01.207Z,0.20
2017-12-20T19:11:35.047Z,0.10
2017-12-20T19:14:09.458Z,-0.10
2017-12-20T19:16:43.146Z,-0.10
2017-12-20T19:19:16.752Z,-0.10
2017-12-20T19:21:50.634Z,-0.10
2017-12-20T19:24:25.061Z,-0.40
2017-12-20T19:26:59.487Z,-0.40
2017-12-20T19:29:33.972Z,-0.40
2017-12-20T19:32:07.711Z,-0.30
2017-12-20T19:34:41.515Z,-0.40
2017-12-20T19:37:15.057Z,-0.40
2017-12-20T19:39:48.806Z,-0.40
2017-12-20T19:42:22.702Z,-0.40
2017-12-20T19:44:56.251Z,-0.40
2017-12-20T19:47:29.869Z,-0.40
2017-12-20T19:50:03.574Z,-0.50
2017-12-20T19:52:38.540Z,-0.40
2017-12-20T19:55:12.211Z,-0.40
2017-12-20T19:57:45.849Z,-0.60
2017-12-20T20:00:19.547Z,-0.60
2017-12-20T20:02:54.175Z,-0.90
2017-12-20T20:05:27.808Z,-1.10
2017-12-20T20:08:01.353Z,-0.80
2017-12-20T20:10:35.026Z,-0.70
2017-12-20T20:13:17.353Z,-0.60
2017-12-20T20:15:50.908Z,-0.80
2017-12-20T20:18:25.470Z,-0.70
2017-12-20T20:20:59.119Z,-0.80
2017-12-20T20:23:33.599Z,-0.50
2017-12-20T20:26:07.207Z,-0.60
2017-12-20T20:28:41.030Z,-0.40
2017-12-20T20:31:14.861Z,-0.40
2017-12-20T20:33:48.691Z,-0.40
2017-12-20T20:36:23.042Z,-0.30
2017-12-20T20:38:57.675Z,-0.30
2017-12-20T20:41:31.424Z,-0.30
2017-12-20T20:44:05.135Z,-0.30
2017-12-20T20:46:38.843Z,-0.30
2017-12-20T20:49:13.299Z,-0.30
2017-12-20T20:51:47.002Z,-0.30
2017-12-20T20:54:20.732Z,-0.30
2017-12-20T20:56:54.382Z,-0.40
2017-12-20T20:59:28.914Z,-0.50
2017-12-20T21:02:02.462Z,-0.50
2017-12-20T21:04:36.316Z,-0.50
2017-12-20T21:07:10.038Z,-0.60
2017-12-20T21:09:43.706Z,-0.60
2017-12-20T21:12:17.358Z,-0.70
2017-12-20T21:14:51.033Z,-0.70
2017-12-20T21:17:28.820Z,-0.60
2017-12-20T21:20:02.441Z,-0.60
2017-12-20T21:22:36.065Z,-1.30
2017-12-20T21:25:10.658Z,-1.90
2017-12-20T21:27:44.336Z,-1.90
2017-12-20T21:30:21.514Z,-2.20
2017-12-20T21:32:55.334Z,-2.40
2017-12-20T21:35:28.974Z,-2.10
2017-12-20T21:38:02.672Z,-1.90
2017-12-20T21:40:36.374Z,-1.70
2017-12-20T21:43:10.226Z,-1.50
2017-12-20T21:45:43.833Z,-1.40
2017-12-20T21:48:17.619Z,-1.40
2017-12-20T21:50:51.334Z,-1.30
2017-12-20T21:53:24.927Z,-1.30
2017-12-20T21:55:59.342Z,-1.30
2017-12-20T21:58:33.229Z,-1.30
2017-12-20T22:01:06.942Z,-1.30
2017-12-20T22:03:40.643Z,-1.40
2017-12-20T22:06:14.407Z,-1.70
2017-12-20T22:08:48.080Z,-1.90
2017-12-20T22:11:21.666Z,-2.00
2017-12-20T22:13:55.911Z,-2.00
2017-12-20T22:16:29.637Z,-1.90
2017-12-20T22:19:03.263Z,-1.90
2017-12-20T22:21:37.040Z,-1.80
2017-12-20T22:24:11.448Z,-1.80
2017-12-20T22:26:45.980Z,-1.80
2017-12-20T22:29:19.604Z,-1.80
2017-12-20T22:31:53.375Z,-2.00
2017-12-20T22:34:27.924Z,-2.00
2017-12-20T22:37:01.772Z,-2.00
2017-12-20T22:39:35.395Z,-2.00
2017-12-20T22:42:08.977Z,-1.90
2017-12-20T22:44:42.715Z,-2.00
2017-12-20T22:47:16.438Z,-2.00
2017-12-20T22:49:50.090Z,-2.00
2017-12-20T22:52:23.818Z,-2.00
2017-12-20T22:54:57.402Z,-2.00
2017-12-20T22:57:30.963Z,-2.00
2017-12-20T23:00:04.549Z,-2.00
2017-12-20T23:02:38.344Z,-2.10
2017-12-20T23:05:11.999Z,-2.20
2017-12-20T23:07:45.866Z,-2.30
2017-12-20T23:10:19.468Z,-2.20
2017-12-20T23:12:54.196Z,-2.10
2017-12-20T23:15:30.022Z,-2.00
2017-12-20T23:18:04.257Z,-2.10
2017-12-20T23:20:38.206Z,-2.00
2017-12-20T23:23:12.590Z,-1.90
2017-12-20T23:25:46.595Z,-1.90
2017-12-20T23:28:20.684Z,-1.90
2017-12-20T23:30:54.910Z,-2.00
2017-12-20T23:33:29.800Z,-2.00
2017-12-20T23:36:04.008Z,-2.00
2017-12-20T23:38:38.041Z,-2.00
2017-12-20T23:41:12.377Z,-2.10
2017-12-20T23:43:47.083Z,-2.00
2017-12-20T23:46:21.634Z,-2.00
2017-12-20T23:48:56.718Z,-1.90
2017-12-20T23:51:31.029Z,-1.90
2017-12-20T23:54:05.663Z,-2.00
2017-12-20T23:56:42.329Z,-2.20
2017-12-20T23:59:16.900Z,-2.60
